createdAt,value
2022-08-10T00:01:02.333Z,102319.88
2022-08-10T00:03:07.975Z,102313.00
2022-08-10T00:05:11.780Z,102311.28
2022-08-10T00:07:16.912Z,102314.84
2022-08-10T00:09:20.485Z,102305.84
2022-08-10T00:11:24.360Z,102302.19
2022-08-10T00:13:28.349Z,102304.75
2022-08-10T00:15:52.353Z,102303.81
2022-08-10T00:17:56.355Z,102303.81
2022-08-10T00:20:03.199Z,102300.28
2022-08-10T00:22:08.252Z,102300.41
2022-08-10T00:24:13.348Z,102296.09
2022-08-10T00:26:17.169Z,102297.16
2022-08-10T00:28:22.107Z,102295.44
2022-08-10T00:30:25.817Z,102287.50
2022-08-10T00:32:29.379Z,102290.19
2022-08-10T00:34:34.869Z,102292.88
2022-08-10T00:36:38.551Z,102286.66
2022-08-10T00:38:42.656Z,102294.69
2022-08-10T00:40:47.816Z,102292.88
2022-08-10T00:42:51.491Z,102296.59
2022-08-10T00:44:55.262Z,102294.13
2022-08-10T00:47:01.246Z,102288.13
2022-08-10T00:49:05.004Z,102291.84
2022-08-10T00:51:08.766Z,102293.78
2022-08-10T00:53:12.523Z,102289.59
2022-08-10T00:55:16.295Z,102288.09
2022-08-10T00:57:22.279Z,102288.31
2022-08-10T00:59:26.166Z,102286.69
2022-08-10T01:02:08.498Z,102285.19
2022-08-10T01:04:54.625Z,102287.19
2022-08-10T01:06:29.545Z,102289.28
2022-08-10T01:08:40.498Z,102297.53
2022-08-10T01:10:54.072Z,102293.13
2022-08-10T01:13:08.616Z,102289.72
2022-08-10T01:15:22.333Z,102291.59
2022-08-10T01:17:49.887Z,102286.25
2022-08-10T01:20:03.051Z,102293.34
2022-08-10T01:22:24.567Z,102289.72
2022-08-10T01:25:05.405Z,102285.31
2022-08-10T01:27:26.998Z,102275.78
2022-08-10T01:29:58.201Z,102277.78
2022-08-10T01:32:07.174Z,102278.94
2022-08-10T01:34:19.033Z,102275.63
2022-08-10T01:36:32.441Z,102278.44
2022-08-10T01:38:38.914Z,102275.84
2022-08-10T01:40:51.005Z,102275.00
2022-08-10T01:43:07.838Z,102277.69
2022-08-10T01:45:17.201Z,102277.59
2022-08-10T01:47:42.759Z,102281.22
2022-08-10T01:49:48.414Z,102275.97
2022-08-10T01:51:55.779Z,102278.84
2022-08-10T01:54:02.726Z,102278.16
2022-08-10T01:56:09.018Z,102275.81
2022-08-10T01:58:15.278Z,102277.69
2022-08-10T02:00:21.305Z,102275.81
2022-08-10T02:02:27.027Z,102276.66
2022-08-10T02:04:32.643Z,102277.53
2022-08-10T02:06:41.408Z,102284.78
2022-08-10T02:08:47.756Z,102286.50
2022-08-10T02:11:01.474Z,102273.22
2022-08-10T02:13:05.961Z,102278.56
2022-08-10T02:15:14.407Z,102278.56
2022-08-10T02:18:00.353Z,102278.69
2022-08-10T02:19:47.760Z,102285.19
2022-08-10T02:22:36.818Z,102285.25
2022-08-10T02:24:21.582Z,102284.50
2022-08-10T02:26:26.005Z,102278.47
2022-08-10T02:28:32.103Z,102286.50
2022-08-10T02:30:37.866Z,102279.53
2022-08-10T02:32:44.595Z,102279.63
2022-08-10T02:34:58.808Z,102279.72
2022-08-10T02:37:10.918Z,102274.38
2022-08-10T02:39:18.865Z,102275.16
2022-08-10T02:45:12.666Z,102266.25
2022-08-10T02:45:25.683Z,102270.56
2022-08-10T02:46:40.902Z,102266.94
2022-08-10T02:48:48.574Z,102266.06
2022-08-10T02:50:59.085Z,102266.25
2022-08-10T02:53:06.893Z,102263.78
2022-08-10T02:55:18.738Z,102268.34
2022-08-10T02:57:27.138Z,102270.28
2022-08-10T02:59:40.318Z,102273.91
2022-08-10T03:01:46.556Z,102272.19
2022-08-10T03:03:57.492Z,102270.38
2022-08-10T03:06:05.538Z,102267.72
2022-08-10T03:08:12.072Z,102272.28
2022-08-10T03:10:18.946Z,102279.66
2022-08-10T03:12:38.237Z,102280.78
2022-08-10T03:14:43.356Z,102281.94
2022-08-10T03:16:48.601Z,102279.28
2022-08-10T03:18:55.214Z,102281.06
2022-08-10T03:21:00.741Z,102278.50
2022-08-10T03:23:06.217Z,102271.41
2022-08-10T03:25:11.954Z,102273.16
2022-08-10T03:27:17.544Z,102268.00
2022-08-10T03:29:22.967Z,102270.88
2022-08-10T03:31:28.301Z,102272.88
2022-08-10T03:33:36.813Z,102276.69
2022-08-10T03:35:42.220Z,102272.38
2022-08-10T03:38:24.116Z,102272.38
2022-08-10T03:40:45.765Z,102276.88
2022-08-10T03:42:53.851Z,102271.63
2022-08-10T03:44:59.542Z,102274.31
2022-08-10T03:47:16.288Z,102265.50
2022-08-10T03:49:21.364Z,102261.31
2022-08-10T03:51:28.121Z,102263.22
2022-08-10T03:54:04.908Z,102264.28
2022-08-10T03:56:29.462Z,102266.06
2022-08-10T03:58:21.148Z,102261.69
2022-08-10T04:00:25.376Z,102259.03
2022-08-10T04:02:46.987Z,102265.31
2022-08-10T04:04:52.910Z,102255.56
2022-08-10T04:06:59.062Z,102261.13
2022-08-10T04:09:03.986Z,102257.75
2022-08-10T04:11:07.438Z,102253.25
2022-08-10T04:13:10.737Z,102257.84
2022-08-10T04:15:14.117Z,102255.09
2022-08-10T04:17:17.391Z,102261.22
2022-08-10T04:19:45.369Z,102259.38
2022-08-10T04:21:56.334Z,102258.44
2022-08-10T04:24:04.135Z,102258.34
2022-08-10T04:26:08.143Z,102260.06
2022-08-10T04:28:13.091Z,102262.84
2022-08-10T04:30:16.636Z,102261.13
2022-08-10T04:32:22.419Z,102251.47
2022-08-10T04:34:31.963Z,102259.75
2022-08-10T04:36:36.408Z,102253.56
2022-08-10T04:38:41.715Z,102254.41
2022-08-10T04:40:47.620Z,102258.69
2022-08-10T04:42:51.111Z,102261.28
2022-08-10T04:44:54.352Z,102256.81
2022-08-10T04:46:59.250Z,102254.03
2022-08-10T04:49:02.868Z,102261.13
2022-08-10T04:51:10.689Z,102259.19
2022-08-10T04:53:14.563Z,102255.56
2022-08-10T04:55:17.960Z,102265.13
2022-08-10T04:57:22.649Z,102264.06
2022-08-10T04:59:25.952Z,102260.47
2022-08-10T05:02:21.623Z,102262.25
2022-08-10T05:04:34.838Z,102256.16
2022-08-10T05:06:15.857Z,102258.94
2022-08-10T05:08:19.509Z,102263.50
2022-08-10T05:10:23.308Z,102256.34
2022-08-10T05:12:28.395Z,102261.69
2022-08-10T05:14:31.704Z,102250.03
2022-08-10T05:16:35.024Z,102250.03
2022-08-10T05:18:38.340Z,102255.22
2022-08-10T05:20:41.667Z,102253.28
2022-08-10T05:22:46.516Z,102252.16
2022-08-10T05:24:49.928Z,102254.06
2022-08-10T05:27:00.524Z,102247.00
2022-08-10T05:29:15.079Z,102251.47
2022-08-10T05:31:23.499Z,102259.31
2022-08-10T05:33:27.648Z,102257.50
2022-08-10T05:35:55.366Z,102252.94
2022-08-10T05:38:12.263Z,102254.47
2022-08-10T05:40:18.286Z,102257.69
2022-08-10T05:42:21.842Z,102253.03
2022-08-10T05:44:26.799Z,102260.75
2022-08-10T05:46:30.328Z,102249.88
2022-08-10T05:48:53.868Z,102261.91
2022-08-10T05:50:57.822Z,102257.22
2022-08-10T05:53:39.132Z,102261.31
2022-08-10T05:55:25.507Z,102256.47
2022-08-10T05:57:31.093Z,102253.28
2022-08-10T06:00:32.954Z,102250.97
2022-08-10T06:02:31.477Z,102253.91
2022-08-10T06:04:34.447Z,102248.88
2022-08-10T06:06:39.308Z,102250.94
2022-08-10T06:08:44.774Z,102256.56
2022-08-10T06:12:23.573Z,102255.75
2022-08-10T06:13:34.836Z,102250.28
2022-08-10T06:15:58.175Z,102257.63
2022-08-10T06:18:03.002Z,102257.84
2022-08-10T06:20:07.514Z,102257.63
2022-08-10T06:22:13.237Z,102262.09
2022-08-10T06:24:18.136Z,102259.63
2022-08-10T06:26:28.737Z,102258.91
2022-08-10T06:28:37.880Z,102255.63
2022-08-10T06:30:42.300Z,102253.78
2022-08-10T06:32:48.000Z,102258.16
2022-08-10T06:34:54.582Z,102264.19
2022-08-10T06:37:00.570Z,102253.22
2022-08-10T06:39:29.946Z,102259.19
2022-08-10T06:42:14.809Z,102250.06
2022-08-10T06:44:01.451Z,102255.22
2022-08-10T06:46:08.749Z,102256.28
2022-08-10T06:48:22.742Z,102256.56
2022-08-10T06:50:44.721Z,102261.16
2022-08-10T06:52:51.442Z,102258.41
2022-08-10T06:54:57.129Z,102254.59
2022-08-10T06:57:18.232Z,102257.59
2022-08-10T06:59:27.219Z,102255.88
2022-08-10T07:01:36.858Z,102250.72
2022-08-10T07:03:47.719Z,102247.97
2022-08-10T07:05:53.081Z,102242.66
2022-08-10T07:08:00.345Z,102233.94
2022-08-10T07:10:03.809Z,102232.09
2022-08-10T07:12:10.815Z,102230.09
2022-08-10T07:14:18.413Z,102228.69
2022-08-10T07:16:28.346Z,102225.47
2022-08-10T07:18:33.787Z,102227.66
2022-08-10T07:20:39.124Z,102227.06
2022-08-10T07:23:54.550Z,102235.06
2022-08-10T07:25:10.110Z,102231.41
2022-08-10T07:27:14.710Z,102227.25
2022-08-10T07:29:52.817Z,102228.69
2022-08-10T07:31:57.155Z,102221.41
2022-08-10T07:34:03.582Z,102225.47
2022-08-10T07:36:11.771Z,102223.53
2022-08-10T07:38:19.798Z,102223.59
2022-08-10T07:40:25.055Z,102222.97
2022-08-10T07:42:31.317Z,102230.69
2022-08-10T07:44:36.184Z,102227.25
2022-08-10T07:46:42.605Z,102231.31
2022-08-10T07:48:49.871Z,102231.47
2022-08-10T07:50:58.006Z,102236.25
2022-08-10T07:53:04.700Z,102237.00
2022-08-10T07:55:13.867Z,102242.22
2022-08-10T07:57:30.739Z,102236.38
2022-08-10T07:59:39.814Z,102235.44
2022-08-10T08:01:50.642Z,102237.31
2022-08-10T08:04:05.521Z,102235.16
2022-08-10T08:06:15.503Z,102235.06
2022-08-10T08:08:22.972Z,102236.41
2022-08-10T08:10:29.375Z,102239.22
2022-08-10T08:12:36.898Z,102236.56
2022-08-10T08:14:45.184Z,102229.78
2022-08-10T08:16:53.181Z,102236.72
2022-08-10T08:19:24.076Z,102234.56
2022-08-10T08:24:04.822Z,102237.41
2022-08-10T08:24:06.201Z,102240.63
2022-08-10T08:26:15.499Z,102242.78
2022-08-10T08:28:20.179Z,102235.47
2022-08-10T08:30:26.983Z,102233.75
2022-08-10T08:32:34.665Z,102241.28
2022-08-10T08:34:40.987Z,102237.78
2022-08-10T08:36:46.007Z,102234.72
2022-08-10T08:38:51.950Z,102225.88
2022-08-10T08:41:02.652Z,102229.25
2022-08-10T08:43:32.901Z,102242.31
2022-08-10T08:46:01.093Z,102243.22
2022-08-10T08:48:39.529Z,102238.69
2022-08-10T08:51:01.977Z,102234.84
2022-08-10T08:53:22.985Z,102229.16
2022-08-10T08:56:05.078Z,102231.56
2022-08-10T08:58:22.087Z,102229.56
2022-08-10T09:00:37.895Z,102229.69
2022-08-10T09:02:55.501Z,102224.31
2022-08-10T09:05:08.839Z,102225.88
2022-08-10T09:08:00.700Z,102219.19
2022-08-10T09:10:16.404Z,102219.03
2022-08-10T09:12:39.953Z,102211.13
2022-08-10T09:14:53.016Z,102216.22
2022-08-10T09:17:04.782Z,102213.69
2022-08-10T09:19:19.702Z,102205.13
2022-08-10T09:22:12.381Z,102214.25
2022-08-10T09:24:20.371Z,102220.63
2022-08-10T09:26:25.033Z,102210.94
2022-08-10T09:28:37.487Z,102204.81
2022-08-10T09:31:10.864Z,102208.47
2022-08-10T09:36:23.356Z,102208.41
2022-08-10T09:36:25.146Z,102198.78
2022-08-10T09:38:25.972Z,102200.69
2022-08-10T09:41:00.722Z,102203.22
2022-08-10T09:43:26.152Z,102197.91
2022-08-10T09:45:41.578Z,102201.38
2022-08-10T09:48:01.423Z,102201.72
2022-08-10T09:50:17.969Z,102195.78
2022-08-10T09:52:36.016Z,102197.44
2022-08-10T09:54:50.219Z,102194.47
2022-08-10T09:57:41.477Z,102190.72
2022-08-10T10:00:01.621Z,102186.53
2022-08-10T10:02:13.414Z,102197.97
2022-08-10T10:04:25.766Z,102192.47
2022-08-10T10:06:41.137Z,102192.75
2022-08-10T10:08:58.325Z,102191.31
2022-08-10T10:11:11.124Z,102186.94
2022-08-10T10:14:01.869Z,102186.72
2022-08-10T10:16:05.110Z,102191.63
2022-08-10T10:18:28.336Z,102185.63
2022-08-10T10:20:36.499Z,102182.50
2022-08-10T10:22:53.750Z,102188.00
2022-08-10T10:25:20.781Z,102180.75
2022-08-10T10:27:38.416Z,102181.81
2022-08-10T10:29:56.853Z,102177.38
2022-08-10T10:32:10.117Z,102172.75
2022-08-10T10:34:22.784Z,102171.56
2022-08-10T10:36:28.261Z,102168.91
2022-08-10T10:38:40.307Z,102167.59
2022-08-10T10:40:51.030Z,102159.28
2022-08-10T10:43:07.180Z,102165.31
2022-08-10T10:45:19.600Z,102165.88
2022-08-10T10:47:46.687Z,102164.69
2022-08-10T10:49:59.689Z,102154.31
2022-08-10T10:52:05.231Z,102151.91
2022-08-10T10:54:13.383Z,102147.47
2022-08-10T10:56:24.794Z,102150.72
2022-08-10T10:58:35.749Z,102147.69
2022-08-10T11:00:47.291Z,102147.00
2022-08-10T11:03:02.763Z,102139.91
2022-08-10T11:05:24.942Z,102140.06
2022-08-10T11:07:37.407Z,102133.94
2022-08-10T11:10:03.349Z,102131.22
2022-08-10T11:12:25.406Z,102124.78
2022-08-10T11:14:37.550Z,102130.22
2022-08-10T11:16:51.716Z,102124.44
2022-08-10T11:19:04.989Z,102123.25
2022-08-10T11:21:24.509Z,102118.81
2022-08-10T11:23:38.468Z,102112.22
2022-08-10T11:25:46.115Z,102101.69
2022-08-10T11:27:56.998Z,102103.41
2022-08-10T11:30:04.988Z,102104.75
2022-08-10T11:32:20.583Z,102099.81
2022-08-10T11:34:48.699Z,102102.03
2022-08-10T11:37:12.303Z,102101.88
2022-08-10T11:39:21.180Z,102096.59
2022-08-10T11:42:08.929Z,102103.38
2022-08-10T11:44:13.340Z,102099.50
2022-08-10T11:46:28.663Z,102091.34
2022-08-10T11:48:53.415Z,102089.31
2022-08-10T11:51:02.808Z,102090.84
2022-08-10T11:53:18.816Z,102086.25
2022-08-10T11:55:25.529Z,102094.22
2022-08-10T11:57:54.293Z,102086.59
2022-08-10T11:59:59.311Z,102080.13
2022-08-10T12:02:04.274Z,102079.28
2022-08-10T12:04:12.220Z,102080.81
2022-08-10T12:06:39.210Z,102086.94
2022-08-10T12:10:04.378Z,102085.75
2022-08-10T12:11:23.976Z,102094.38
2022-08-10T12:13:32.530Z,102095.91
2022-08-10T12:15:42.328Z,102094.06
2022-08-10T12:17:51.546Z,102083.03
2022-08-10T12:20:04.516Z,102089.47
2022-08-10T12:22:09.101Z,102091.00
2022-08-10T12:24:27.450Z,102090.31
2022-08-10T12:26:39.232Z,102080.16
2022-08-10T12:28:50.937Z,102078.44
2022-08-10T12:30:59.559Z,102082.16
2022-08-10T12:33:08.049Z,102082.34
2022-08-10T12:35:23.698Z,102077.09
2022-08-10T12:37:37.104Z,102072.34
2022-08-10T12:40:06.914Z,102069.78
2022-08-10T12:42:36.920Z,102070.81
2022-08-10T12:44:49.748Z,102069.22
2022-08-10T12:47:01.495Z,102066.78
2022-08-10T12:49:21.636Z,102058.97
2022-08-10T12:51:30.667Z,102058.66
2022-08-10T12:53:45.598Z,102065.44
2022-08-10T12:55:52.620Z,102066.78
2022-08-10T12:57:58.904Z,102055.63
2022-08-10T13:00:03.734Z,102059.72
2022-08-10T13:02:10.891Z,102059.38
2022-08-10T13:04:22.737Z,102058.38
2022-08-10T13:06:30.803Z,102058.38
2022-08-10T13:08:53.233Z,102058.38
2022-08-10T13:11:03.338Z,102063.06
2022-08-10T13:13:07.661Z,102053.91
2022-08-10T13:15:46.223Z,102055.41
2022-08-10T13:17:53.241Z,102050.28
2022-08-10T13:20:08.177Z,102039.31
2022-08-10T13:22:19.211Z,102042.19
2022-08-10T13:24:29.070Z,102039.47
2022-08-10T13:27:24.722Z,102034.94
2022-08-10T13:29:12.706Z,102031.84
2022-08-10T13:31:22.240Z,102032.00
2022-08-10T13:34:40.732Z,102029.44
2022-08-10T13:36:16.578Z,102033.69
2022-08-10T13:38:23.432Z,102015.84
2022-08-10T13:40:29.073Z,102020.06
2022-08-10T13:42:38.157Z,102015.47
2022-08-10T13:44:44.143Z,102015.53
2022-08-10T13:46:52.869Z,102012.00
2022-08-10T13:48:59.529Z,102004.19
2022-08-10T13:51:04.597Z,102012.31
2022-08-10T13:53:15.233Z,102009.13
2022-08-10T13:55:25.296Z,102013.38
2022-08-10T13:57:32.528Z,102003.72
2022-08-10T14:00:34.326Z,102009.63
2022-08-10T14:02:04.536Z,102010.16
2022-08-10T14:04:12.740Z,102004.38
2022-08-10T14:06:18.829Z,102002.19
2022-08-10T14:08:26.920Z,101998.47
2022-08-10T14:11:08.979Z,101993.03
2022-08-10T14:13:04.778Z,102002.19
2022-08-10T14:15:16.270Z,102005.09
2022-08-10T14:17:22.296Z,102002.38
2022-08-10T14:19:28.445Z,101997.63
2022-08-10T14:21:38.853Z,101992.53
2022-08-10T14:23:52.302Z,101993.06
2022-08-10T14:26:04.119Z,102005.44
2022-08-10T14:28:10.733Z,101992.34
2022-08-10T14:30:18.390Z,101991.84
2022-08-10T14:32:28.188Z,101992.34
2022-08-10T14:36:14.937Z,101998.13
2022-08-10T14:37:03.935Z,101994.25
2022-08-10T14:39:09.741Z,102000.03
2022-08-10T14:42:04.500Z,101999.31
2022-08-10T14:43:44.588Z,101999.31
2022-08-10T14:46:01.407Z,101995.22
2022-08-10T14:48:11.557Z,101984.19
2022-08-10T14:50:31.643Z,101985.38
2022-08-10T14:52:44.263Z,101977.94
2022-08-10T14:54:52.889Z,101970.63
2022-08-10T14:56:58.315Z,101977.94
2022-08-10T14:59:07.594Z,101977.63
2022-08-10T15:01:20.980Z,101977.97
2022-08-10T15:03:59.544Z,101974.25
2022-08-10T15:05:53.388Z,101976.09
2022-08-10T15:08:04.106Z,101973.03
2022-08-10T15:10:09.921Z,101972.53
2022-08-10T15:12:21.890Z,101967.59
2022-08-10T15:14:42.653Z,101961.69
2022-08-10T15:16:50.260Z,101965.41
2022-08-10T15:18:58.663Z,101963.03
2022-08-10T15:21:17.309Z,101963.69
2022-08-10T15:23:29.826Z,101968.47
2022-08-10T15:25:39.431Z,101955.38
2022-08-10T15:28:08.270Z,101957.97
2022-08-10T15:30:13.730Z,101952.19
2022-08-10T15:32:37.227Z,101953.03
2022-08-10T15:34:58.906Z,101960.69
2022-08-10T15:37:40.336Z,101955.91
2022-08-10T15:40:25.091Z,101955.25
2022-08-10T15:42:18.904Z,101947.25
2022-08-10T15:44:22.886Z,101944.06
2022-08-10T15:46:34.958Z,101949.13
2022-08-10T15:48:48.288Z,101948.47
2022-08-10T15:51:00.614Z,101946.25
2022-08-10T15:53:16.673Z,101937.63
2022-08-10T15:55:42.883Z,101941.69
2022-08-10T15:57:52.175Z,101937.25
2022-08-10T16:00:02.151Z,101929.97
2022-08-10T16:02:17.428Z,101924.53
2022-08-10T16:04:32.324Z,101928.25
2022-08-10T16:06:42.042Z,101929.63
2022-08-10T16:08:57.057Z,101932.50
2022-08-10T16:11:19.202Z,101940.34
2022-08-10T16:13:59.608Z,101933.19
2022-08-10T16:16:00.020Z,101932.19
2022-08-10T16:18:06.099Z,101930.47
2022-08-10T16:20:12.691Z,101930.84
2022-08-10T16:22:35.883Z,101927.06
2022-08-10T16:24:47.577Z,101934.72
2022-08-10T16:26:54.362Z,101923.34
2022-08-10T16:29:03.189Z,101924.88
2022-08-10T16:31:14.717Z,101919.09
2022-08-10T16:33:20.833Z,101917.88
2022-08-10T16:35:26.165Z,101916.16
2022-08-10T16:37:56.700Z,101912.44
2022-08-10T16:40:02.518Z,101914.84
2022-08-10T16:42:11.668Z,101908.41
2022-08-10T16:44:18.350Z,101908.06
2022-08-10T16:46:23.778Z,101912.16
2022-08-10T16:48:49.763Z,101911.13
2022-08-10T16:50:58.306Z,101907.41
2022-08-10T16:53:03.618Z,101909.44
2022-08-10T16:55:23.464Z,101903.34
2022-08-10T16:57:29.918Z,101900.13
2022-08-10T16:59:38.458Z,101900.59
2022-08-10T17:01:43.584Z,101898.72
2022-08-10T17:04:07.743Z,101898.19
2022-08-10T17:06:21.353Z,101906.50
2022-08-10T17:08:25.807Z,101896.69
2022-08-10T17:10:31.143Z,101899.72
2022-08-10T17:12:36.068Z,101896.56
2022-08-10T17:14:41.705Z,101893.84
2022-08-10T17:16:52.160Z,101893.84
2022-08-10T17:18:58.728Z,101892.16
2022-08-10T17:21:07.837Z,101889.56
2022-08-10T17:23:15.807Z,101890.44
2022-08-10T17:25:23.078Z,101892.97
2022-08-10T17:28:04.240Z,101889.44
2022-08-10T17:30:30.044Z,101893.47
2022-08-10T17:32:44.441Z,101905.66
2022-08-10T17:34:53.288Z,101897.88
2022-08-10T17:37:01.094Z,101889.03
2022-08-10T17:39:12.695Z,101889.22
2022-08-10T17:41:20.039Z,101879.06
2022-08-10T17:43:46.129Z,101880.25
2022-08-10T17:45:50.721Z,101879.22
2022-08-10T17:47:58.671Z,101882.25
2022-08-10T17:50:04.008Z,101882.09
2022-08-10T17:52:12.152Z,101881.59
2022-08-10T17:54:28.177Z,101882.94
2022-08-10T17:56:35.110Z,101876.00
2022-08-10T17:58:48.671Z,101878.88
2022-08-10T18:00:55.839Z,101877.66
2022-08-10T18:03:01.206Z,101882.06
2022-08-10T18:05:09.878Z,101881.91
2022-08-10T18:07:15.286Z,101884.78
2022-08-10T18:09:30.986Z,101885.78
2022-08-10T18:11:42.209Z,101882.75
2022-08-10T18:13:55.450Z,101889.34
2022-08-10T18:16:00.518Z,101888.66
2022-08-10T18:18:04.892Z,101887.63
2022-08-10T18:20:11.121Z,101885.91
2022-08-10T18:22:17.380Z,101877.13
2022-08-10T18:24:23.147Z,101882.00
2022-08-10T18:26:28.293Z,101879.47
2022-08-10T18:28:34.459Z,101878.63
2022-08-10T18:30:50.510Z,101878.94
2022-08-10T18:32:58.102Z,101873.03
2022-08-10T18:35:04.725Z,101882.16
2022-08-10T18:37:10.414Z,101884.16
2022-08-10T18:39:17.139Z,101875.53
2022-08-10T18:41:24.831Z,101874.66
2022-08-10T18:44:07.238Z,101876.38
2022-08-10T18:46:03.610Z,101877.38
2022-08-10T18:48:12.825Z,101874.16
2022-08-10T18:50:23.250Z,101878.22
2022-08-10T18:52:29.573Z,101873.22
2022-08-10T18:54:44.941Z,101874.25
2022-08-10T18:56:58.923Z,101868.84
2022-08-10T18:59:13.021Z,101878.38
2022-08-10T19:01:34.052Z,101872.28
2022-08-10T19:04:04.910Z,101878.09
2022-08-10T19:06:20.913Z,101881.53
2022-08-10T19:08:57.847Z,101878.63
2022-08-10T19:11:07.378Z,101887.91
2022-08-10T19:13:21.343Z,101890.25
2022-08-10T19:15:44.258Z,101888.53
2022-08-10T19:18:03.948Z,101887.47
2022-08-10T19:20:20.345Z,101874.91
2022-08-10T19:22:29.100Z,101882.66
2022-08-10T19:24:45.341Z,101878.91
2022-08-10T19:26:55.958Z,101880.41
2022-08-10T19:29:47.369Z,101874.25
2022-08-10T19:31:51.953Z,101874.06
2022-08-10T19:34:11.483Z,101871.97
2022-08-10T19:36:34.783Z,101875.47
2022-08-10T19:38:49.526Z,101877.28
2022-08-10T19:41:09.921Z,101882.59
2022-08-10T19:43:20.772Z,101871.56
2022-08-10T19:46:02.655Z,101875.03
2022-08-10T19:48:17.465Z,101870.44
2022-08-10T19:50:25.665Z,101876.28
2022-08-10T19:52:39.247Z,101872.34
2022-08-10T19:54:53.696Z,101877.38
2022-08-10T19:57:06.961Z,101874.16
2022-08-10T20:00:15.165Z,101875.47
2022-08-10T20:01:55.040Z,101877.63
2022-08-10T20:04:06.294Z,101874.69
2022-08-10T20:06:18.830Z,101875.47
2022-08-10T20:08:29.660Z,101874.19
2022-08-10T20:10:44.023Z,101882.22
2022-08-10T20:12:58.041Z,101886.50
2022-08-10T20:15:08.860Z,101876.75
2022-08-10T20:17:24.761Z,101889.50
2022-08-10T20:19:52.520Z,101877.72
2022-08-10T20:22:03.559Z,101882.03
2022-08-10T20:24:12.549Z,101880.63
2022-08-10T20:26:21.078Z,101888.31
2022-08-10T20:28:33.180Z,101886.22
2022-08-10T20:30:42.803Z,101889.19
2022-08-10T20:32:52.569Z,101899.72
2022-08-10T20:35:05.953Z,101895.78
2022-08-10T20:37:45.059Z,101897.06
2022-08-10T20:40:09.773Z,101898.63
2022-08-10T20:42:19.636Z,101893.78
2022-08-10T20:44:40.723Z,101888.00
2022-08-10T20:46:49.605Z,101895.69
2022-08-10T20:49:00.053Z,101900.34
2022-08-10T20:51:07.903Z,101901.63
2022-08-10T20:53:15.624Z,101900.38
2022-08-10T20:55:21.179Z,101906.38
2022-08-10T20:57:57.570Z,101909.75
2022-08-10T21:00:08.092Z,101910.47
2022-08-10T21:02:32.316Z,101910.91
2022-08-10T21:04:49.147Z,101918.00
2022-08-10T21:07:22.079Z,101911.47
2022-08-10T21:09:57.425Z,101919.97
2022-08-10T21:12:28.262Z,101913.88
2022-08-10T21:14:45.535Z,101905.34
2022-08-10T21:17:06.997Z,101911.72
2022-08-10T21:19:34.941Z,101910.28
2022-08-10T21:22:04.415Z,101912.53
2022-08-10T21:24:19.980Z,101912.84
2022-08-10T21:26:30.829Z,101908.56
2022-08-10T21:29:20.447Z,101917.19
2022-08-10T21:31:36.226Z,101908.13
2022-08-10T21:33:54.023Z,101906.25
2022-08-10T21:36:08.980Z,101913.91
2022-08-10T21:38:26.763Z,101915.41
2022-08-10T21:40:44.066Z,101922.50
2022-08-10T21:43:44.737Z,101925.00
2022-08-10T21:46:23.710Z,101918.31
2022-08-10T21:48:58.923Z,101926.94
2022-08-10T21:52:01.280Z,101921.53
2022-08-10T21:54:27.875Z,101917.41
2022-08-10T21:56:54.483Z,101919.38
2022-08-10T21:59:21.647Z,101915.94
2022-08-10T22:01:51.618Z,101913.41
2022-08-10T22:04:14.099Z,101918.03
2022-08-10T22:06:52.362Z,101921.00
2022-08-10T22:09:17.929Z,101925.09
2022-08-10T22:11:45.486Z,101923.19
2022-08-10T22:14:09.984Z,101914.94
2022-08-10T22:16:42.455Z,101920.72
2022-08-10T22:19:13.496Z,101920.84
2022-08-10T22:21:48.183Z,101929.91
2022-08-10T22:24:22.960Z,101917.69
2022-08-10T22:27:06.821Z,101917.97
2022-08-10T22:29:42.407Z,101917.09
2022-08-10T22:32:22.396Z,101914.69
2022-08-10T22:35:09.931Z,101921.44
2022-08-10T22:37:43.579Z,101913.63
2022-08-10T22:40:17.260Z,101913.88
2022-08-10T22:42:58.089Z,101905.38
2022-08-10T22:45:26.305Z,101923.59
2022-08-10T22:47:51.037Z,101912.09
2022-08-10T22:49:54.076Z,101907.00
2022-08-10T22:52:12.633Z,101907.25
2022-08-10T22:54:39.168Z,101904.97
2022-08-10T22:57:00.714Z,101905.19
2022-08-10T22:59:06.237Z,101904.50
2022-08-10T23:01:36.434Z,101908.53
2022-08-10T23:03:47.513Z,101900.81
2022-08-10T23:06:00.414Z,101903.03
2022-08-10T23:08:29.998Z,101902.31
2022-08-10T23:10:40.695Z,101906.72
2022-08-10T23:12:49.915Z,101903.16
2022-08-10T23:15:13.737Z,101904.16
2022-08-10T23:18:00.980Z,101907.69
2022-08-10T23:20:08.653Z,101906.00
2022-08-10T23:22:15.027Z,101908.53
2022-08-10T23:24:26.970Z,101913.78
2022-08-10T23:26:34.346Z,101908.53
2022-08-10T23:28:58.865Z,101900.63
2022-08-10T23:31:11.572Z,101900.63
2022-08-10T23:33:17.340Z,101903.44
2022-08-10T23:36:27.751Z,101903.69
2022-08-10T23:38:13.824Z,101905.78
2022-08-10T23:40:21.403Z,101898.09
2022-08-10T23:42:27.031Z,101893.84
2022-08-10T23:44:36.841Z,101902.88
2022-08-10T23:46:43.840Z,101903.13
2022-08-10T23:48:49.547Z,101906.06
2022-08-10T23:50:58.394Z,101896.56
2022-08-10T23:53:13.519Z,101899.72
2022-08-10T23:55:24.881Z,101901.94
2022-08-10T23:57:30.600Z,101897.78
2022-08-10T23:59:35.010Z,101902.56
